sensor_id;sensor_type;location;lat;lon;timestamp;temperature;humidity
17621;DHT22;8929;51.008;6.804;2023-01-24T00:00:35;5.30;99.90
17621;DHT22;8929;51.008;6.804;2023-01-24T00:03:00;5.30;99.90
17621;DHT22;8929;51.008;6.804;2023-01-24T00:05:26;5.30;99.90
17621;DHT22;8929;51.008;6.804;2023-01-24T00:07:51;5.30;99.90
17621;DHT22;8929;51.008;6.804;2023-01-24T00:10:17;5.20;99.90
17621;DHT22;8929;51.008;6.804;2023-01-24T00:12:42;5.30;99.90
17621;DHT22;8929;51.008;6.804;2023-01-24T00:15:08;5.30;99.90
17621;DHT22;8929;51.008;6.804;2023-01-24T00:17:34;5.30;99.90
17621;DHT22;8929;51.008;6.804;2023-01-24T00:19:59;5.30;99.90
17621;DHT22;8929;51.008;6.804;2023-01-24T00:22:24;5.30;99.90
17621;DHT22;8929;51.008;6.804;2023-01-24T00:24:50;5.30;99.90
17621;DHT22;8929;51.008;6.804;2023-01-24T00:27:16;5.40;99.90
17621;DHT22;8929;51.008;6.804;2023-01-24T00:29:41;5.40;99.90
17621;DHT22;8929;51.008;6.804;2023-01-24T00:32:07;5.40;99.90
17621;DHT22;8929;51.008;6.804;2023-01-24T00:34:32;5.40;99.90
17621;DHT22;8929;51.008;6.804;2023-01-24T00:36:58;5.40;99.90
17621;DHT22;8929;51.008;6.804;2023-01-24T00:39:23;5.50;99.90
17621;DHT22;8929;51.008;6.804;2023-01-24T00:41:49;5.40;99.90
17621;DHT22;8929;51.008;6.804;2023-01-24T00:44:14;5.40;99.90
17621;DHT22;8929;51.008;6.804;2023-01-24T00:46:40;5.30;99.90
17621;DHT22;8929;51.008;6.804;2023-01-24T00:49:06;5.20;99.90
17621;DHT22;8929;51.008;6.804;2023-01-24T00:51:32;5.20;99.90
17621;DHT22;8929;51.008;6.804;2023-01-24T00:53:57;5.20;99.90
17621;DHT22;8929;51.008;6.804;2023-01-24T00:56:22;5.30;99.90
17621;DHT22;8929;51.008;6.804;2023-01-24T00:58:48;5.20;99.90
17621;DHT22;8929;51.008;6.804;2023-01-24T01:01:13;5.30;99.90
17621;DHT22;8929;51.008;6.804;2023-01-24T01:03:39;5.30;99.90
17621;DHT22;8929;51.008;6.804;2023-01-24T01:06:09;5.30;99.90
17621;DHT22;8929;51.008;6.804;2023-01-24T01:08:37;5.30;99.90
17621;DHT22;8929;51.008;6.804;2023-01-24T01:11:02;5.30;99.90
17621;DHT22;8929;51.008;6.804;2023-01-24T01:13:28;5.40;99.90
17621;DHT22;8929;51.008;6.804;2023-01-24T01:16:01;5.40;99.90
17621;DHT22;8929;51.008;6.804;2023-01-24T01:18:27;5.40;99.90
17621;DHT22;8929;51.008;6.804;2023-01-24T01:20:52;5.40;99.90
17621;DHT22;8929;51.008;6.804;2023-01-24T01:23:18;5.40;99.90
17621;DHT22;8929;51.008;6.804;2023-01-24T01:25:43;5.40;99.90
17621;DHT22;8929;51.008;6.804;2023-01-24T01:28:08;5.40;99.90
17621;DHT22;8929;51.008;6.804;2023-01-24T01:30:34;5.40;99.90
17621;DHT22;8929;51.008;6.804;2023-01-24T01:32:59;5.40;99.90
17621;DHT22;8929;51.008;6.804;2023-01-24T01:35:25;5.50;99.90
17621;DHT22;8929;51.008;6.804;2023-01-24T01:37:50;5.50;99.90
17621;DHT22;8929;51.008;6.804;2023-01-24T01:40:17;5.50;99.90
17621;DHT22;8929;51.008;6.804;2023-01-24T01:42:50;5.40;99.90
17621;DHT22;8929;51.008;6.804;2023-01-24T01:45:36;5.40;99.90
17621;DHT22;8929;51.008;6.804;2023-01-24T01:48:05;5.40;99.90
17621;DHT22;8929;51.008;6.804;2023-01-24T01:50:36;5.40;99.90
17621;DHT22;8929;51.008;6.804;2023-01-24T01:53:04;5.40;99.90
17621;DHT22;8929;51.008;6.804;2023-01-24T01:55:32;5.40;99.90
17621;DHT22;8929;51.008;6.804;2023-01-24T01:57:59;5.40;99.90
17621;DHT22;8929;51.008;6.804;2023-01-24T02:00:25;5.30;99.90
17621;DHT22;8929;51.008;6.804;2023-01-24T02:03:03;5.30;99.90
17621;DHT22;8929;51.008;6.804;2023-01-24T02:05:47;5.30;99.90
17621;DHT22;8929;51.008;6.804;2023-01-24T02:08:15;5.30;99.90
17621;DHT22;8929;51.008;6.804;2023-01-24T02:10:42;5.30;99.90
17621;DHT22;8929;51.008;6.804;2023-01-24T02:13:26;5.30;99.90
17621;DHT22;8929;51.008;6.804;2023-01-24T02:15:51;5.30;99.90
17621;DHT22;8929;51.008;6.804;2023-01-24T02:18:27;5.30;99.90
17621;DHT22;8929;51.008;6.804;2023-01-24T02:20:53;5.30;99.90
17621;DHT22;8929;51.008;6.804;2023-01-24T02:23:25;5.30;99.90
17621;DHT22;8929;51.008;6.804;2023-01-24T02:28:24;5.30;99.90
17621;DHT22;8929;51.008;6.804;2023-01-24T02:30:51;5.20;99.90
17621;DHT22;8929;51.008;6.804;2023-01-24T02:33:18;5.20;99.90
17621;DHT22;8929;51.008;6.804;2023-01-24T02:35:44;5.20;99.90
17621;DHT22;8929;51.008;6.804;2023-01-24T02:38:31;5.10;99.90
17621;DHT22;8929;51.008;6.804;2023-01-24T02:40:57;5.00;99.90
17621;DHT22;8929;51.008;6.804;2023-01-24T02:43:31;5.00;99.90
17621;DHT22;8929;51.008;6.804;2023-01-24T02:45:59;5.10;99.90
17621;DHT22;8929;51.008;6.804;2023-01-24T02:48:24;5.10;99.90
17621;DHT22;8929;51.008;6.804;2023-01-24T02:50:50;5.10;99.90
17621;DHT22;8929;51.008;6.804;2023-01-24T02:53:34;5.10;99.90
17621;DHT22;8929;51.008;6.804;2023-01-24T02:56:00;5.20;99.90
17621;DHT22;8929;51.008;6.804;2023-01-24T02:58:45;5.10;99.90
17621;DHT22;8929;51.008;6.804;2023-01-24T03:01:11;5.10;99.90
17621;DHT22;8929;51.008;6.804;2023-01-24T03:03:36;5.10;99.90
17621;DHT22;8929;51.008;6.804;2023-01-24T03:06:02;5.10;99.90
17621;DHT22;8929;51.008;6.804;2023-01-24T03:08:29;5.10;99.90
17621;DHT22;8929;51.008;6.804;2023-01-24T03:10:55;5.10;99.90
17621;DHT22;8929;51.008;6.804;2023-01-24T03:13:21;5.20;99.90
17621;DHT22;8929;51.008;6.804;2023-01-24T03:16:05;5.20;99.90
17621;DHT22;8929;51.008;6.804;2023-01-24T03:18:49;5.10;99.90
17621;DHT22;8929;51.008;6.804;2023-01-24T03:21:33;5.10;99.90
17621;DHT22;8929;51.008;6.804;2023-01-24T03:24:17;5.10;99.90
17621;DHT22;8929;51.008;6.804;2023-01-24T03:27:02;5.10;99.90
17621;DHT22;8929;51.008;6.804;2023-01-24T03:29:46;5.10;99.90
17621;DHT22;8929;51.008;6.804;2023-01-24T03:32:30;5.00;99.90
17621;DHT22;8929;51.008;6.804;2023-01-24T03:35:14;5.00;99.90
17621;DHT22;8929;51.008;6.804;2023-01-24T03:37:40;5.00;99.90
17621;DHT22;8929;51.008;6.804;2023-01-24T03:40:24;5.00;99.90
17621;DHT22;8929;51.008;6.804;2023-01-24T03:42:49;4.90;99.90
17621;DHT22;8929;51.008;6.804;2023-01-24T03:45:16;4.90;99.90
17621;DHT22;8929;51.008;6.804;2023-01-24T03:47:44;4.90;99.90
17621;DHT22;8929;51.008;6.804;2023-01-24T03:50:11;5.00;99.90
17621;DHT22;8929;51.008;6.804;2023-01-24T03:52:54;5.00;99.90
17621;DHT22;8929;51.008;6.804;2023-01-24T03:55:20;5.00;99.90
17621;DHT22;8929;51.008;6.804;2023-01-24T03:57:46;5.00;99.90
17621;DHT22;8929;51.008;6.804;2023-01-24T04:00:12;5.00;99.90
17621;DHT22;8929;51.008;6.804;2023-01-24T04:02:38;5.00;99.90
17621;DHT22;8929;51.008;6.804;2023-01-24T04:05:04;5.00;99.90
17621;DHT22;8929;51.008;6.804;2023-01-24T04:07:38;5.00;99.90
17621;DHT22;8929;51.008;6.804;2023-01-24T04:10:03;5.00;99.90
17621;DHT22;8929;51.008;6.804;2023-01-24T04:12:29;4.90;99.90
17621;DHT22;8929;51.008;6.804;2023-01-24T04:14:55;4.90;99.90
17621;DHT22;8929;51.008;6.804;2023-01-24T04:17:20;4.80;99.90
17621;DHT22;8929;51.008;6.804;2023-01-24T04:19:46;4.80;99.90
17621;DHT22;8929;51.008;6.804;2023-01-24T04:22:11;4.80;99.90
17621;DHT22;8929;51.008;6.804;2023-01-24T04:24:37;4.90;99.90
17621;DHT22;8929;51.008;6.804;2023-01-24T04:27:03;4.80;99.90
17621;DHT22;8929;51.008;6.804;2023-01-24T04:29:28;4.80;99.90
17621;DHT22;8929;51.008;6.804;2023-01-24T04:31:54;4.90;99.90
17621;DHT22;8929;51.008;6.804;2023-01-24T04:34:19;4.90;99.90
17621;DHT22;8929;51.008;6.804;2023-01-24T04:36:45;4.90;99.90
17621;DHT22;8929;51.008;6.804;2023-01-24T04:39:10;4.90;99.90
17621;DHT22;8929;51.008;6.804;2023-01-24T04:41:36;4.90;99.90
17621;DHT22;8929;51.008;6.804;2023-01-24T04:44:01;4.90;99.90
17621;DHT22;8929;51.008;6.804;2023-01-24T04:46:27;4.90;99.90
17621;DHT22;8929;51.008;6.804;2023-01-24T04:48:53;4.90;99.90
17621;DHT22;8929;51.008;6.804;2023-01-24T04:51:18;4.80;99.90
17621;DHT22;8929;51.008;6.804;2023-01-24T04:53:43;4.80;99.90
17621;DHT22;8929;51.008;6.804;2023-01-24T04:56:09;4.80;99.90
17621;DHT22;8929;51.008;6.804;2023-01-24T04:58:36;4.80;99.90
17621;DHT22;8929;51.008;6.804;2023-01-24T05:01:02;4.80;99.90
17621;DHT22;8929;51.008;6.804;2023-01-24T05:03:27;4.80;99.90
17621;DHT22;8929;51.008;6.804;2023-01-24T05:05:53;4.80;99.90
17621;DHT22;8929;51.008;6.804;2023-01-24T05:08:19;4.80;99.90
17621;DHT22;8929;51.008;6.804;2023-01-24T05:10:45;4.80;99.90
17621;DHT22;8929;51.008;6.804;2023-01-24T05:13:10;4.80;99.90
17621;DHT22;8929;51.008;6.804;2023-01-24T05:15:36;4.80;99.90
17621;DHT22;8929;51.008;6.804;2023-01-24T05:18:02;4.80;99.90
17621;DHT22;8929;51.008;6.804;2023-01-24T05:20:27;4.70;99.90
17621;DHT22;8929;51.008;6.804;2023-01-24T05:22:56;4.70;99.90
17621;DHT22;8929;51.008;6.804;2023-01-24T05:25:22;4.70;99.90
17621;DHT22;8929;51.008;6.804;2023-01-24T05:27:47;4.70;99.90
17621;DHT22;8929;51.008;6.804;2023-01-24T05:30:13;4.70;99.90
17621;DHT22;8929;51.008;6.804;2023-01-24T05:32:38;4.70;99.90
17621;DHT22;8929;51.008;6.804;2023-01-24T05:35:04;4.70;99.90
17621;DHT22;8929;51.008;6.804;2023-01-24T05:37:30;4.70;99.90
17621;DHT22;8929;51.008;6.804;2023-01-24T05:39:55;4.70;99.90
17621;DHT22;8929;51.008;6.804;2023-01-24T05:42:21;4.70;99.90
17621;DHT22;8929;51.008;6.804;2023-01-24T05:44:46;4.70;99.90
17621;DHT22;8929;51.008;6.804;2023-01-24T05:47:11;4.70;99.90
17621;DHT22;8929;51.008;6.804;2023-01-24T05:49:37;4.70;99.90
17621;DHT22;8929;51.008;6.804;2023-01-24T05:52:02;4.70;99.90
17621;DHT22;8929;51.008;6.804;2023-01-24T05:54:28;4.70;99.90
17621;DHT22;8929;51.008;6.804;2023-01-24T05:56:53;4.70;99.90
17621;DHT22;8929;51.008;6.804;2023-01-24T05:59:19;4.70;99.90
17621;DHT22;8929;51.008;6.804;2023-01-24T06:01:45;4.70;99.90
17621;DHT22;8929;51.008;6.804;2023-01-24T06:04:10;4.60;99.90
17621;DHT22;8929;51.008;6.804;2023-01-24T06:06:36;4.60;99.90
17621;DHT22;8929;51.008;6.804;2023-01-24T06:09:01;4.60;99.90
17621;DHT22;8929;51.008;6.804;2023-01-24T06:11:27;4.70;99.90
17621;DHT22;8929;51.008;6.804;2023-01-24T06:13:53;4.60;99.90
17621;DHT22;8929;51.008;6.804;2023-01-24T06:16:20;4.60;99.90
17621;DHT22;8929;51.008;6.804;2023-01-24T06:18:45;4.70;99.90
17621;DHT22;8929;51.008;6.804;2023-01-24T06:23:55;4.70;99.90
17621;DHT22;8929;51.008;6.804;2023-01-24T06:26:21;4.70;99.90
17621;DHT22;8929;51.008;6.804;2023-01-24T06:28:47;4.70;99.90
17621;DHT22;8929;51.008;6.804;2023-01-24T06:31:16;4.70;99.90
17621;DHT22;8929;51.008;6.804;2023-01-24T06:33:51;4.70;99.90
17621;DHT22;8929;51.008;6.804;2023-01-24T06:36:37;4.70;99.90
17621;DHT22;8929;51.008;6.804;2023-01-24T06:39:08;4.70;99.90
17621;DHT22;8929;51.008;6.804;2023-01-24T06:41:35;4.70;99.90
17621;DHT22;8929;51.008;6.804;2023-01-24T06:44:01;4.70;99.90
17621;DHT22;8929;51.008;6.804;2023-01-24T06:46:26;4.70;99.90
17621;DHT22;8929;51.008;6.804;2023-01-24T06:48:52;4.70;99.90
17621;DHT22;8929;51.008;6.804;2023-01-24T06:51:17;4.70;99.90
17621;DHT22;8929;51.008;6.804;2023-01-24T06:53:42;4.70;99.90
17621;DHT22;8929;51.008;6.804;2023-01-24T06:56:08;4.70;99.90
17621;DHT22;8929;51.008;6.804;2023-01-24T06:58:34;4.70;99.90
17621;DHT22;8929;51.008;6.804;2023-01-24T07:00:59;4.70;99.90
17621;DHT22;8929;51.008;6.804;2023-01-24T07:03:25;4.60;99.90
17621;DHT22;8929;51.008;6.804;2023-01-24T07:05:50;4.70;99.90
17621;DHT22;8929;51.008;6.804;2023-01-24T07:08:16;4.70;99.90
17621;DHT22;8929;51.008;6.804;2023-01-24T07:10:42;4.60;99.90
17621;DHT22;8929;51.008;6.804;2023-01-24T07:13:08;4.60;99.90
17621;DHT22;8929;51.008;6.804;2023-01-24T07:15:33;4.70;99.90
17621;DHT22;8929;51.008;6.804;2023-01-24T07:18:08;4.60;99.90
17621;DHT22;8929;51.008;6.804;2023-01-24T07:20:34;4.60;99.90
17621;DHT22;8929;51.008;6.804;2023-01-24T07:23:00;4.60;99.90
17621;DHT22;8929;51.008;6.804;2023-01-24T07:25:25;4.60;99.90
17621;DHT22;8929;51.008;6.804;2023-01-24T07:27:51;4.60;99.90
17621;DHT22;8929;51.008;6.804;2023-01-24T07:30:17;4.60;99.90
17621;DHT22;8929;51.008;6.804;2023-01-24T07:32:43;4.60;99.90
17621;DHT22;8929;51.008;6.804;2023-01-24T07:35:08;4.60;99.90
17621;DHT22;8929;51.008;6.804;2023-01-24T07:37:34;4.60;99.90
17621;DHT22;8929;51.008;6.804;2023-01-24T07:39:59;4.70;99.90
17621;DHT22;8929;51.008;6.804;2023-01-24T07:42:25;4.60;99.90
17621;DHT22;8929;51.008;6.804;2023-01-24T07:44:50;4.60;99.90
17621;DHT22;8929;51.008;6.804;2023-01-24T07:47:16;4.60;99.90
17621;DHT22;8929;51.008;6.804;2023-01-24T07:49:41;4.60;99.90
17621;DHT22;8929;51.008;6.804;2023-01-24T07:52:07;4.60;99.90
17621;DHT22;8929;51.008;6.804;2023-01-24T07:54:32;4.70;99.90
17621;DHT22;8929;51.008;6.804;2023-01-24T07:56:59;4.60;99.90
17621;DHT22;8929;51.008;6.804;2023-01-24T07:59:25;4.60;99.90
17621;DHT22;8929;51.008;6.804;2023-01-24T08:01:50;4.70;99.90
17621;DHT22;8929;51.008;6.804;2023-01-24T08:04:15;4.70;99.90
17621;DHT22;8929;51.008;6.804;2023-01-24T08:06:41;4.60;99.90
17621;DHT22;8929;51.008;6.804;2023-01-24T08:09:26;4.70;99.90
17621;DHT22;8929;51.008;6.804;2023-01-24T08:11:52;4.60;99.90
17621;DHT22;8929;51.008;6.804;2023-01-24T08:14:18;4.70;99.90
17621;DHT22;8929;51.008;6.804;2023-01-24T08:16:43;4.70;99.90
17621;DHT22;8929;51.008;6.804;2023-01-24T08:19:08;4.70;99.90
17621;DHT22;8929;51.008;6.804;2023-01-24T08:21:34;4.70;99.90
17621;DHT22;8929;51.008;6.804;2023-01-24T08:23:59;4.70;99.90
17621;DHT22;8929;51.008;6.804;2023-01-24T08:26:25;4.70;99.90
17621;DHT22;8929;51.008;6.804;2023-01-24T08:28:50;4.80;99.90
17621;DHT22;8929;51.008;6.804;2023-01-24T08:31:16;4.80;99.90
17621;DHT22;8929;51.008;6.804;2023-01-24T08:33:41;4.80;99.90
17621;DHT22;8929;51.008;6.804;2023-01-24T08:36:06;4.70;99.90
17621;DHT22;8929;51.008;6.804;2023-01-24T08:38:32;4.80;99.90
17621;DHT22;8929;51.008;6.804;2023-01-24T08:40:57;4.80;99.90
17621;DHT22;8929;51.008;6.804;2023-01-24T08:43:23;4.70;99.90
17621;DHT22;8929;51.008;6.804;2023-01-24T08:45:53;4.70;99.90
17621;DHT22;8929;51.008;6.804;2023-01-24T08:48:18;4.80;99.90
17621;DHT22;8929;51.008;6.804;2023-01-24T08:50:44;4.80;99.90
17621;DHT22;8929;51.008;6.804;2023-01-24T08:53:09;4.90;99.90
17621;DHT22;8929;51.008;6.804;2023-01-24T08:55:35;4.90;99.90
17621;DHT22;8929;51.008;6.804;2023-01-24T08:58:01;4.90;99.90
17621;DHT22;8929;51.008;6.804;2023-01-24T09:00:27;5.00;99.90
17621;DHT22;8929;51.008;6.804;2023-01-24T09:02:52;5.00;99.90
17621;DHT22;8929;51.008;6.804;2023-01-24T09:05:18;5.00;99.90
17621;DHT22;8929;51.008;6.804;2023-01-24T09:07:43;5.00;99.90
17621;DHT22;8929;51.008;6.804;2023-01-24T09:10:09;5.10;99.90
17621;DHT22;8929;51.008;6.804;2023-01-24T09:12:35;5.20;99.90
17621;DHT22;8929;51.008;6.804;2023-01-24T09:15:00;5.20;99.90
17621;DHT22;8929;51.008;6.804;2023-01-24T09:17:26;5.20;99.90
17621;DHT22;8929;51.008;6.804;2023-01-24T09:19:51;5.20;99.90
17621;DHT22;8929;51.008;6.804;2023-01-24T09:22:17;5.30;99.90
17621;DHT22;8929;51.008;6.804;2023-01-24T09:24:42;5.30;99.90
17621;DHT22;8929;51.008;6.804;2023-01-24T09:27:09;5.40;99.90
17621;DHT22;8929;51.008;6.804;2023-01-24T09:29:35;5.40;99.90
17621;DHT22;8929;51.008;6.804;2023-01-24T09:32:00;5.40;99.90
17621;DHT22;8929;51.008;6.804;2023-01-24T09:34:26;5.40;99.90
17621;DHT22;8929;51.008;6.804;2023-01-24T09:36:51;5.40;99.90
17621;DHT22;8929;51.008;6.804;2023-01-24T09:39:17;5.40;99.90
17621;DHT22;8929;51.008;6.804;2023-01-24T09:46:46;5.50;99.90
17621;DHT22;8929;51.008;6.804;2023-01-24T09:49:15;5.50;99.90
17621;DHT22;8929;51.008;6.804;2023-01-24T09:51:44;5.50;99.90
17621;DHT22;8929;51.008;6.804;2023-01-24T09:54:13;5.60;99.90
17621;DHT22;8929;51.008;6.804;2023-01-24T09:56:41;5.60;99.90
17621;DHT22;8929;51.008;6.804;2023-01-24T09:59:19;5.60;99.90
17621;DHT22;8929;51.008;6.804;2023-01-24T10:01:49;5.60;99.90
17621;DHT22;8929;51.008;6.804;2023-01-24T10:04:57;5.60;99.90
17621;DHT22;8929;51.008;6.804;2023-01-24T10:17:42;5.70;99.90
17621;DHT22;8929;51.008;6.804;2023-01-24T10:25:16;5.70;99.90
17621;DHT22;8929;51.008;6.804;2023-01-24T10:27:44;5.80;99.90
17621;DHT22;8929;51.008;6.804;2023-01-24T10:30:12;5.80;99.90
17621;DHT22;8929;51.008;6.804;2023-01-24T10:32:39;5.80;99.90
17621;DHT22;8929;51.008;6.804;2023-01-24T10:35:29;5.70;99.90
17621;DHT22;8929;51.008;6.804;2023-01-24T10:37:56;5.80;99.90
17621;DHT22;8929;51.008;6.804;2023-01-24T10:40:23;5.80;99.90
17621;DHT22;8929;51.008;6.804;2023-01-24T10:42:50;5.80;99.90
17621;DHT22;8929;51.008;6.804;2023-01-24T10:45:28;5.70;99.90
17621;DHT22;8929;51.008;6.804;2023-01-24T10:48:41;5.70;99.90
17621;DHT22;8929;51.008;6.804;2023-01-24T10:50:42;5.80;99.90
17621;DHT22;8929;51.008;6.804;2023-01-24T10:53:21;5.80;99.90
17621;DHT22;8929;51.008;6.804;2023-01-24T10:55:48;5.90;99.90
17621;DHT22;8929;51.008;6.804;2023-01-24T10:58:19;5.90;99.90
17621;DHT22;8929;51.008;6.804;2023-01-24T11:00:46;5.90;99.90
17621;DHT22;8929;51.008;6.804;2023-01-24T11:03:18;5.80;99.90
17621;DHT22;8929;51.008;6.804;2023-01-24T11:05:48;5.90;99.90
17621;DHT22;8929;51.008;6.804;2023-01-24T11:08:16;5.90;99.90
17621;DHT22;8929;51.008;6.804;2023-01-24T11:10:42;6.10;99.90
17621;DHT22;8929;51.008;6.804;2023-01-24T11:15:53;6.00;99.90
17621;DHT22;8929;51.008;6.804;2023-01-24T11:18:21;6.10;99.90
17621;DHT22;8929;51.008;6.804;2023-01-24T11:20:52;6.20;99.90
17621;DHT22;8929;51.008;6.804;2023-01-24T11:23:28;6.20;99.90
17621;DHT22;8929;51.008;6.804;2023-01-24T11:34:12;6.20;99.90
17621;DHT22;8929;51.008;6.804;2023-01-24T11:36:45;6.20;99.90
17621;DHT22;8929;51.008;6.804;2023-01-24T11:39:16;6.20;99.90
17621;DHT22;8929;51.008;6.804;2023-01-24T11:41:46;6.20;99.90
17621;DHT22;8929;51.008;6.804;2023-01-24T11:44:32;6.20;99.90
17621;DHT22;8929;51.008;6.804;2023-01-24T11:47:14;6.20;99.90
17621;DHT22;8929;51.008;6.804;2023-01-24T11:49:45;6.00;99.90
17621;DHT22;8929;51.008;6.804;2023-01-24T11:52:19;6.00;99.90
17621;DHT22;8929;51.008;6.804;2023-01-24T11:54:57;6.10;99.90
17621;DHT22;8929;51.008;6.804;2023-01-24T11:57:28;6.10;99.90
17621;DHT22;8929;51.008;6.804;2023-01-24T12:02:31;6.10;99.90
17621;DHT22;8929;51.008;6.804;2023-01-24T12:09:59;6.30;99.90
17621;DHT22;8929;51.008;6.804;2023-01-24T12:12:29;6.30;99.90
17621;DHT22;8929;51.008;6.804;2023-01-24T12:20:02;6.30;99.90
17621;DHT22;8929;51.008;6.804;2023-01-24T12:22:32;6.20;99.90
17621;DHT22;8929;51.008;6.804;2023-01-24T12:25:44;6.20;99.90
17621;DHT22;8929;51.008;6.804;2023-01-24T12:27:44;6.20;99.90
17621;DHT22;8929;51.008;6.804;2023-01-24T12:30:15;6.10;99.90
17621;DHT22;8929;51.008;6.804;2023-01-24T12:32:49;6.20;99.90
17621;DHT22;8929;51.008;6.804;2023-01-24T12:38:10;6.20;99.90
17621;DHT22;8929;51.008;6.804;2023-01-24T12:40:46;6.20;99.90
17621;DHT22;8929;51.008;6.804;2023-01-24T12:46:04;6.30;99.90
17621;DHT22;8929;51.008;6.804;2023-01-24T12:51:07;6.30;99.90
17621;DHT22;8929;51.008;6.804;2023-01-24T12:53:40;6.30;99.90
17621;DHT22;8929;51.008;6.804;2023-01-24T12:58:52;6.50;99.90
17621;DHT22;8929;51.008;6.804;2023-01-24T13:03:52;6.60;99.90
17621;DHT22;8929;51.008;6.804;2023-01-24T13:06:26;6.60;99.90
17621;DHT22;8929;51.008;6.804;2023-01-24T13:09:55;6.60;99.90
17621;DHT22;8929;51.008;6.804;2023-01-24T13:11:48;6.70;99.90
17621;DHT22;8929;51.008;6.804;2023-01-24T13:14:25;6.70;99.90
17621;DHT22;8929;51.008;6.804;2023-01-24T13:24:21;6.80;99.90
17621;DHT22;8929;51.008;6.804;2023-01-24T13:32:10;6.80;99.90
17621;DHT22;8929;51.008;6.804;2023-01-24T13:34:40;6.70;99.90
17621;DHT22;8929;51.008;6.804;2023-01-24T13:37:06;6.70;99.90
17621;DHT22;8929;51.008;6.804;2023-01-24T13:39:39;6.70;99.90
17621;DHT22;8929;51.008;6.804;2023-01-24T13:44:37;6.70;99.90
17621;DHT22;8929;51.008;6.804;2023-01-24T13:49:37;6.60;99.90
17621;DHT22;8929;51.008;6.804;2023-01-24T13:52:05;6.50;99.90
17621;DHT22;8929;51.008;6.804;2023-01-24T13:54:48;6.60;99.90
17621;DHT22;8929;51.008;6.804;2023-01-24T13:59:40;6.60;99.90
17621;DHT22;8929;51.008;6.804;2023-01-24T14:04:50;6.50;99.90
17621;DHT22;8929;51.008;6.804;2023-01-24T14:07:19;6.50;99.90
17621;DHT22;8929;51.008;6.804;2023-01-24T14:09:56;6.40;99.90
17621;DHT22;8929;51.008;6.804;2023-01-24T14:12:22;6.40;99.90
17621;DHT22;8929;51.008;6.804;2023-01-24T14:20:14;6.30;99.90
17621;DHT22;8929;51.008;6.804;2023-01-24T14:22:42;6.20;99.90
17621;DHT22;8929;51.008;6.804;2023-01-24T14:28:00;6.30;99.90
17621;DHT22;8929;51.008;6.804;2023-01-24T14:30:30;6.30;99.90
17621;DHT22;8929;51.008;6.804;2023-01-24T14:32:58;6.20;99.90
17621;DHT22;8929;51.008;6.804;2023-01-24T14:35:28;6.20;99.90
17621;DHT22;8929;51.008;6.804;2023-01-24T14:38:09;6.10;99.90
17621;DHT22;8929;51.008;6.804;2023-01-24T14:40:35;6.10;99.90
17621;DHT22;8929;51.008;6.804;2023-01-24T14:43:03;6.10;99.90
17621;DHT22;8929;51.008;6.804;2023-01-24T14:45:31;6.10;99.90
17621;DHT22;8929;51.008;6.804;2023-01-24T14:47:56;6.10;99.90
17621;DHT22;8929;51.008;6.804;2023-01-24T14:50:30;6.10;99.90
17621;DHT22;8929;51.008;6.804;2023-01-24T14:52:59;6.10;99.90
17621;DHT22;8929;51.008;6.804;2023-01-24T14:55:33;6.00;99.90
17621;DHT22;8929;51.008;6.804;2023-01-24T14:58:14;6.00;99.90
17621;DHT22;8929;51.008;6.804;2023-01-24T15:00:41;6.00;99.90
17621;DHT22;8929;51.008;6.804;2023-01-24T15:03:06;6.00;99.90
17621;DHT22;8929;51.008;6.804;2023-01-24T15:05:33;6.00;99.90
17621;DHT22;8929;51.008;6.804;2023-01-24T15:07:59;6.00;99.90
17621;DHT22;8929;51.008;6.804;2023-01-24T15:10:27;5.90;99.90
17621;DHT22;8929;51.008;6.804;2023-01-24T15:12:53;5.90;99.90
17621;DHT22;8929;51.008;6.804;2023-01-24T15:15:20;5.80;99.90
17621;DHT22;8929;51.008;6.804;2023-01-24T15:17:45;5.80;99.90
17621;DHT22;8929;51.008;6.804;2023-01-24T15:20:19;5.80;99.90
17621;DHT22;8929;51.008;6.804;2023-01-24T15:22:49;5.80;99.90
17621;DHT22;8929;51.008;6.804;2023-01-24T15:25:32;5.80;99.90
17621;DHT22;8929;51.008;6.804;2023-01-24T15:28:09;5.80;99.90
17621;DHT22;8929;51.008;6.804;2023-01-24T15:30:34;5.70;99.90
17621;DHT22;8929;51.008;6.804;2023-01-24T15:33:01;5.60;99.90
17621;DHT22;8929;51.008;6.804;2023-01-24T15:35:36;5.60;99.90
17621;DHT22;8929;51.008;6.804;2023-01-24T15:38:12;5.50;99.90
17621;DHT22;8929;51.008;6.804;2023-01-24T15:40:47;5.60;99.90
17621;DHT22;8929;51.008;6.804;2023-01-24T15:43:26;5.60;99.90
17621;DHT22;8929;51.008;6.804;2023-01-24T15:46:14;5.50;99.90
17621;DHT22;8929;51.008;6.804;2023-01-24T15:48:59;5.50;99.90
17621;DHT22;8929;51.008;6.804;2023-01-24T15:51:27;5.40;99.90
17621;DHT22;8929;51.008;6.804;2023-01-24T15:53:53;5.40;99.90
17621;DHT22;8929;51.008;6.804;2023-01-24T15:56:20;5.40;99.90
17621;DHT22;8929;51.008;6.804;2023-01-24T15:58:47;5.40;99.90
17621;DHT22;8929;51.008;6.804;2023-01-24T16:01:13;5.30;99.90
17621;DHT22;8929;51.008;6.804;2023-01-24T16:03:39;5.30;99.90
17621;DHT22;8929;51.008;6.804;2023-01-24T16:06:07;5.30;99.90
17621;DHT22;8929;51.008;6.804;2023-01-24T16:08:32;5.30;99.90
17621;DHT22;8929;51.008;6.804;2023-01-24T16:10:58;5.30;99.90
17621;DHT22;8929;51.008;6.804;2023-01-24T16:13:28;5.20;99.90
17621;DHT22;8929;51.008;6.804;2023-01-24T16:15:58;5.20;99.90
17621;DHT22;8929;51.008;6.804;2023-01-24T16:18:24;5.20;99.90
17621;DHT22;8929;51.008;6.804;2023-01-24T16:20:50;5.10;99.90
17621;DHT22;8929;51.008;6.804;2023-01-24T16:23:15;5.20;99.90
17621;DHT22;8929;51.008;6.804;2023-01-24T16:25:41;5.10;99.90
17621;DHT22;8929;51.008;6.804;2023-01-24T16:28:08;5.10;99.90
17621;DHT22;8929;51.008;6.804;2023-01-24T16:30:40;5.10;99.90
17621;DHT22;8929;51.008;6.804;2023-01-24T16:33:09;5.00;99.90
17621;DHT22;8929;51.008;6.804;2023-01-24T16:35:35;5.00;99.90
17621;DHT22;8929;51.008;6.804;2023-01-24T16:38:00;5.00;99.90
17621;DHT22;8929;51.008;6.804;2023-01-24T16:40:26;5.00;99.90
17621;DHT22;8929;51.008;6.804;2023-01-24T16:42:52;5.00;99.90
17621;DHT22;8929;51.008;6.804;2023-01-24T16:45:21;4.90;99.90
17621;DHT22;8929;51.008;6.804;2023-01-24T16:47:55;5.00;99.90
17621;DHT22;8929;51.008;6.804;2023-01-24T16:50:21;5.00;99.90
17621;DHT22;8929;51.008;6.804;2023-01-24T16:59:04;4.90;99.90
17621;DHT22;8929;51.008;6.804;2023-01-24T17:01:30;4.90;99.90
17621;DHT22;8929;51.008;6.804;2023-01-24T17:03:55;4.90;99.90
17621;DHT22;8929;51.008;6.804;2023-01-24T17:06:21;4.90;99.90
17621;DHT22;8929;51.008;6.804;2023-01-24T17:08:50;4.90;99.90
17621;DHT22;8929;51.008;6.804;2023-01-24T17:11:16;4.80;99.90
17621;DHT22;8929;51.008;6.804;2023-01-24T17:13:44;4.90;99.90
17621;DHT22;8929;51.008;6.804;2023-01-24T17:16:10;4.80;99.90
17621;DHT22;8929;51.008;6.804;2023-01-24T17:18:36;4.80;99.90
17621;DHT22;8929;51.008;6.804;2023-01-24T17:21:02;4.80;99.90
17621;DHT22;8929;51.008;6.804;2023-01-24T17:23:29;4.80;99.90
17621;DHT22;8929;51.008;6.804;2023-01-24T17:26:01;4.80;99.90
17621;DHT22;8929;51.008;6.804;2023-01-24T17:28:27;4.80;99.90
17621;DHT22;8929;51.008;6.804;2023-01-24T17:30:52;4.80;99.90
17621;DHT22;8929;51.008;6.804;2023-01-24T17:33:18;4.70;99.90
17621;DHT22;8929;51.008;6.804;2023-01-24T17:35:45;4.70;99.90
17621;DHT22;8929;51.008;6.804;2023-01-24T17:38:11;4.70;99.90
17621;DHT22;8929;51.008;6.804;2023-01-24T17:40:37;4.70;99.90
17621;DHT22;8929;51.008;6.804;2023-01-24T17:43:02;4.70;99.90
17621;DHT22;8929;51.008;6.804;2023-01-24T17:45:28;4.70;99.90
17621;DHT22;8929;51.008;6.804;2023-01-24T17:47:56;4.70;99.90
17621;DHT22;8929;51.008;6.804;2023-01-24T17:50:22;4.70;99.90